Time;durP1;ratioP1;P1;durP2;ratioP2;P2;SDS_P1;SDS_P2;PMS_P1;PMS_P2;Temp;Humidity;BMP_temperature;BMP_pressure;BME280_temperature;BME280_humidity;BME280_pressure;Samples;Min_cycle;Max_cycle;Signal;HPM_P1;HPM_P2
2023/04/28 04:04:17;;;;;;;2.90;2.80;;;9.00;99.90;;;;;;6243828;23;20196;-69
2023/04/28 04:06:44;;;;;;;2.40;2.30;;;9.00;99.90;;;;;;6246465;23;20176;-68
2023/04/28 04:09:11;;;;;;;2.45;2.35;;;9.00;99.90;;;;;;6246753;23;20180;-68
2023/04/28 04:11:37;;;;;;;3.00;2.80;;;9.00;99.90;;;;;;6246521;23;20176;-67
2023/04/28 04:14:05;;;;;;;3.00;2.80;;;9.00;99.90;;;;;;6217700;23;20193;-67
2023/04/28 04:16:31;;;;;;;2.92;2.83;;;9.00;99.90;;;;;;6215771;23;20199;-67
2023/04/28 04:18:58;;;;;;;3.10;2.90;;;9.00;99.90;;;;;;6216068;23;20180;-67
2023/04/28 04:21:26;;;;;;;3.38;2.80;;;9.00;99.90;;;;;;6215929;23;20177;-67
2023/04/28 04:23:53;;;;;;;3.22;3.03;;;8.90;99.90;;;;;;6215821;23;20280;-66
2023/04/28 04:26:20;;;;;;;3.28;3.13;;;8.90;99.90;;;;;;6215860;23;20176;-66
2023/04/28 04:28:47;;;;;;;2.92;2.83;;;8.90;99.90;;;;;;6215985;23;20204;-67
2023/04/28 04:31:14;;;;;;;2.70;2.60;;;9.00;99.90;;;;;;6215787;23;20183;-67
2023/04/28 04:33:41;;;;;;;2.78;2.67;;;9.00;99.90;;;;;;6215764;23;20224;-67
2023/04/28 04:36:08;;;;;;;2.95;2.75;;;9.00;99.90;;;;;;6215756;23;20188;-67
2023/04/28 04:38:36;;;;;;;3.53;3.33;;;9.10;99.90;;;;;;6215339;23;20638;-67
2023/04/28 04:41:02;;;;;;;3.72;3.45;;;9.00;99.90;;;;;;6215711;23;20184;-67
2023/04/28 04:43:29;;;;;;;4.18;3.88;;;8.90;99.90;;;;;;6215307;23;20700;-67
2023/04/28 04:45:56;;;;;;;4.30;3.97;;;8.90;99.90;;;;;;6215718;23;20169;-67
2023/04/28 04:48:23;;;;;;;3.72;3.42;;;8.80;99.90;;;;;;6215720;23;20183;-66
2023/04/28 04:50:49;;;;;;;4.30;3.95;;;8.90;99.90;;;;;;6216333;23;20488;-66
2023/04/28 04:53:16;;;;;;;4.22;3.92;;;8.90;99.90;;;;;;6215284;23;20678;-66
2023/04/28 04:55:44;;;;;;;3.85;3.65;;;8.90;99.90;;;;;;6216087;23;20193;-67
2023/04/28 04:58:11;;;;;;;3.83;3.53;;;9.00;99.90;;;;;;6215961;23;20180;-69
2023/04/28 05:00:38;;;;;;;4.45;4.15;;;9.00;99.90;;;;;;6215378;23;20176;-67
2023/04/28 05:03:05;;;;;;;3.45;3.25;;;9.10;99.90;;;;;;6215512;23;20200;-67
2023/04/28 05:05:32;;;;;;;3.65;3.42;;;9.10;99.90;;;;;;6215756;23;20180;-66
2023/04/28 05:07:58;;;;;;;4.10;3.78;;;9.20;99.90;;;;;;6215239;23;20634;-67
2023/04/28 05:10:26;;;;;;;4.85;4.25;;;9.20;99.90;;;;;;6216003;23;20177;-67
2023/04/28 05:12:54;;;;;;;4.72;4.32;;;9.10;99.90;;;;;;6215554;23;20193;-67
2023/04/28 05:15:21;;;;;;;4.03;3.72;;;9.10;99.90;;;;;;6215637;23;20180;-67
2023/04/28 05:17:47;;;;;;;4.40;4.00;;;9.10;99.90;;;;;;6215566;23;20173;-67
2023/04/28 05:20:14;;;;;;;3.95;3.65;;;9.10;99.90;;;;;;6215644;23;20509;-67
2023/04/28 05:22:41;;;;;;;4.05;3.78;;;9.10;99.90;;;;;;6215528;23;20204;-67
2023/04/28 05:25:09;;;;;;;5.65;3.92;;;9.10;99.90;;;;;;6215716;23;20183;-67
2023/04/28 05:27:36;;;;;;;3.95;3.67;;;9.10;99.90;;;;;;6217554;23;20507;-67
2023/04/28 05:30:06;;;;;;;3.70;3.50;;;9.20;99.90;;;;;;6217451;23;20560;-67
2023/04/28 05:32:33;;;;;;;3.78;3.58;;;9.30;99.90;;;;;;6217521;23;20200;-67
2023/04/28 05:35:00;;;;;;;3.40;3.20;;;9.30;99.90;;;;;;6217550;23;20181;-67
2023/04/28 05:37:27;;;;;;;3.50;3.30;;;9.30;99.90;;;;;;6217397;23;20239;-67
2023/04/28 05:39:54;;;;;;;2.97;2.88;;;9.40;99.90;;;;;;6217485;23;20196;-67
2023/04/28 05:42:21;;;;;;;2.67;2.60;;;9.40;99.90;;;;;;6217778;23;20199;-67
2023/04/28 05:44:48;;;;;;;4.00;3.70;;;9.40;99.90;;;;;;6217464;23;20183;-67
2023/04/28 05:47:16;;;;;;;3.75;3.55;;;9.40;99.90;;;;;;6217390;23;20177;-67
2023/04/28 05:49:42;;;;;;;3.63;3.42;;;9.50;99.90;;;;;;6217535;23;20180;-67
2023/04/28 05:52:09;;;;;;;3.38;3.17;;;9.40;99.90;;;;;;6217169;23;20196;-67
2023/04/28 05:54:36;;;;;;;2.95;2.85;;;9.50;99.90;;;;;;6217477;23;20177;-66
2023/04/28 05:57:03;;;;;;;3.20;3.10;;;9.50;99.90;;;;;;6217183;23;20189;-66
2023/04/28 05:59:30;;;;;;;2.20;2.20;;;9.50;99.90;;;;;;6217322;23;20452;-66
2023/04/28 06:01:57;;;;;;;1.85;1.85;;;9.50;99.90;;;;;;6217130;23;20637;-66
2023/04/28 06:04:25;;;;;;;2.20;2.10;;;9.60;99.90;;;;;;6217279;23;20177;-66
2023/04/28 06:06:52;;;;;;;2.85;2.75;;;9.60;99.90;;;;;;6217377;23;20161;-66
2023/04/28 06:09:19;;;;;;;3.45;3.25;;;9.60;99.90;;;;;;6217024;23;20757;-66
2023/04/28 06:11:45;;;;;;;3.63;3.42;;;9.60;99.90;;;;;;6217242;23;20188;-66
2023/04/28 06:14:12;;;;;;;4.38;4.10;;;9.60;99.90;;;;;;6217140;23;20203;-67
2023/04/28 06:16:39;;;;;;;4.38;4.07;;;9.50;99.90;;;;;;6217148;23;20227;-67
2023/04/28 06:19:06;;;;;;;3.90;3.70;;;9.60;99.90;;;;;;6217148;23;20239;-67
2023/04/28 06:21:34;;;;;;;4.05;3.65;;;9.50;99.90;;;;;;6217286;23;20187;-67
2023/04/28 06:24:01;;;;;;;4.15;3.95;;;9.60;99.90;;;;;;6216837;23;20678;-67
2023/04/28 06:26:27;;;;;;;3.35;3.15;;;9.60;99.90;;;;;;6216846;23;20173;-66
2023/04/28 06:28:54;;;;;;;2.83;2.72;;;9.80;99.90;;;;;;6217175;23;20177;-67
2023/04/28 06:31:21;;;;;;;3.10;3.00;;;9.90;99.90;;;;;;6217184;23;20177;-67
2023/04/28 06:33:48;;;;;;;3.03;2.92;;;10.00;99.90;;;;;;6217637;23;20196;-67
2023/04/28 06:36:16;;;;;;;2.85;2.67;;;10.10;99.90;;;;;;6216583;23;20522;-67
2023/04/28 06:38:44;;;;;;;2.72;2.63;;;10.30;99.90;;;;;;6216442;23;20235;-67
2023/04/28 06:41:11;;;;;;;2.47;2.35;;;10.40;99.90;;;;;;6216599;23;20506;-67
2023/04/28 06:43:38;;;;;;;5.18;4.82;;;10.50;99.90;;;;;;6217906;23;20192;-67
2023/04/28 06:46:05;;;;;;;4.03;3.72;;;10.40;99.90;;;;;;6217015;23;20176;-67
2023/04/28 06:48:31;;;;;;;3.05;2.85;;;10.40;99.90;;;;;;6216917;23;20514;-68
2023/04/28 06:50:58;;;;;;;2.88;2.78;;;10.50;99.90;;;;;;6216903;23;20177;-67
2023/04/28 06:53:25;;;;;;;2.45;2.35;;;10.60;99.90;;;;;;6216530;23;20701;-67
2023/04/28 06:55:53;;;;;;;2.58;2.53;;;10.80;99.90;;;;;;6216811;23;20173;-67
2023/04/28 06:58:20;;;;;;;2.42;2.33;;;10.80;99.90;;;;;;6216441;23;20649;-67
2023/04/28 07:00:47;;;;;;;2.22;2.13;;;10.90;99.90;;;;;;6216739;23;20259;-67
2023/04/28 07:03:14;;;;;;;2.25;2.15;;;11.00;99.90;;;;;;6215993;23;20507;-67
2023/04/28 07:05:40;;;;;;;2.30;2.20;;;11.00;99.90;;;;;;6216306;23;20665;-68
2023/04/28 07:08:07;;;;;;;2.05;2.05;;;11.10;99.90;;;;;;6216668;23;20181;-68
2023/04/28 07:10:34;;;;;;;2.00;2.00;;;11.20;99.90;;;;;;6216729;23;20177;-69
2023/04/28 07:13:02;;;;;;;1.60;1.60;;;11.20;99.90;;;;;;6216222;23;20246;-69
2023/04/28 07:15:29;;;;;;;1.52;1.52;;;11.30;99.90;;;;;;6216272;23;20634;-69
2023/04/28 07:17:55;;;;;;;1.25;1.25;;;11.30;99.90;;;;;;6216413;23;20250;-69
2023/04/28 07:20:22;;;;;;;1.40;1.40;;;11.40;99.90;;;;;;6216545;23;20176;-69
2023/04/28 07:22:49;;;;;;;1.15;1.15;;;11.30;99.90;;;;;;6216465;23;20196;-70
2023/04/28 07:25:15;;;;;;;1.20;1.20;;;11.30;99.90;;;;;;6216089;23;20177;-69
2023/04/28 07:27:42;;;;;;;1.10;1.10;;;11.40;99.90;;;;;;6216568;23;20184;-70
2023/04/28 07:30:12;;;;;;;0.95;0.95;;;11.40;99.90;;;;;;6216682;23;20207;-69
2023/04/28 07:32:38;;;;;;;0.88;0.88;;;11.40;99.90;;;;;;6216454;23;20259;-69
2023/04/28 07:35:06;;;;;;;0.52;0.52;;;11.40;99.90;;;;;;6216668;23;20183;-69
2023/04/28 07:37:32;;;;;;;0.73;0.73;;;11.30;99.90;;;;;;6216075;23;20669;-69
2023/04/28 07:39:59;;;;;;;0.73;0.73;;;11.40;99.90;;;;;;6216491;23;20177;-69
2023/04/28 07:42:26;;;;;;;1.17;1.13;;;11.30;99.90;;;;;;6216298;23;20574;-69
2023/04/28 07:44:53;;;;;;;1.30;1.30;;;11.20;99.90;;;;;;6216831;23;20509;-69
2023/04/28 07:47:21;;;;;;;1.20;1.20;;;11.10;99.90;;;;;;6217215;23;20227;-69
2023/04/28 07:49:47;;;;;;;0.85;0.85;;;11.10;99.90;;;;;;6215858;23;20664;-69
2023/04/28 07:52:15;;;;;;;0.90;0.90;;;11.00;99.90;;;;;;6216588;23;20193;-69
2023/04/28 07:54:41;;;;;;;1.00;1.00;;;11.00;99.90;;;;;;6216075;23;20580;-69
2023/04/28 07:57:09;;;;;;;2.15;1.60;;;10.90;99.90;;;;;;6216279;23;20196;-69
2023/04/28 07:59:36;;;;;;;2.70;1.60;;;10.80;99.90;;;;;;6216586;23;20256;-69
2023/04/28 08:02:03;;;;;;;1.20;1.20;;;10.70;99.90;;;;;;6216186;23;20181;-69
2023/04/28 08:04:32;;;;;;;1.38;1.35;;;10.80;99.90;;;;;;6216139;23;20180;-69
2023/04/28 08:06:59;;;;;;;1.60;1.55;;;10.80;99.90;;;;;;6216315;23;20153;-69
2023/04/28 08:09:26;;;;;;;1.65;1.58;;;10.80;99.90;;;;;;6216179;23;20180;-69
2023/04/28 08:11:53;;;;;;;1.17;1.02;;;10.90;99.90;;;;;;6216077;23;20173;-69
2023/04/28 08:14:20;;;;;;;1.13;1.13;;;11.00;99.90;;;;;;6215782;23;20645;-69
2023/04/28 08:16:47;;;;;;;2.30;2.15;;;11.00;99.90;;;;;;6215650;23;20649;-69
2023/04/28 08:19:14;;;;;;;3.70;3.50;;;11.20;99.90;;;;;;6216120;23;20176;-69
2023/04/28 08:21:42;;;;;;;3.47;3.28;;;11.00;99.90;;;;;;6216193;23;20172;-69
2023/04/28 08:24:09;;;;;;;3.00;2.80;;;11.20;99.90;;;;;;6215964;23;20197;-69
2023/04/28 08:26:36;;;;;;;2.45;2.35;;;11.40;99.90;;;;;;6216129;23;20168;-69
2023/04/28 08:29:03;;;;;;;1.98;1.77;;;11.70;99.90;;;;;;6216147;23;20231;-69
2023/04/28 08:31:30;;;;;;;1.83;1.75;;;11.70;99.90;;;;;;6216223;23;20290;-67
2023/04/28 08:33:57;;;;;;;1.35;1.35;;;11.80;99.90;;;;;;6215941;23;20200;-67
2023/04/28 08:36:27;;;;;;;0.90;0.90;;;11.90;99.90;;;;;;6215911;23;20176;-67
2023/04/28 08:38:57;;;;;;;0.98;0.90;;;11.90;99.90;;;;;;6216260;23;20172;-67
2023/04/28 08:41:26;;;;;;;0.60;0.60;;;11.90;99.90;;;;;;6216367;23;20164;-67
2023/04/28 08:43:53;;;;;;;0.60;0.60;;;12.10;99.90;;;;;;6216130;23;20636;-67
2023/04/28 08:46:21;;;;;;;0.60;0.60;;;12.30;99.90;;;;;;6215950;23;20176;-67
2023/04/28 08:48:49;;;;;;;0.40;0.40;;;12.40;99.90;;;;;;6215939;23;20223;-68
2023/04/28 08:51:25;;;;;;;0.40;0.40;;;12.80;99.90;;;;;;6215942;23;20172;-68
2023/04/28 08:53:56;;;;;;;0.35;0.35;;;13.10;99.90;;;;;;6216067;23;20203;-68
2023/04/28 08:56:24;;;;;;;0.40;0.40;;;13.50;99.90;;;;;;6215954;23;20212;-68
2023/04/28 08:58:53;;;;;;;0.40;0.40;;;13.90;99.90;;;;;;6215996;23;20176;-68
2023/04/28 09:01:19;;;;;;;0.30;0.30;;;14.30;99.90;;;;;;6216456;23;20173;-68
2023/04/28 09:03:48;;;;;;;0.35;0.30;;;14.60;99.90;;;;;;6217861;23;20200;-68
2023/04/28 09:06:14;;;;;;;0.30;0.30;;;14.80;99.90;;;;;;6217567;23;20268;-68
2023/04/28 09:08:41;;;;;;;0.22;0.22;;;15.20;99.90;;;;;;6217943;23;20188;-68
2023/04/28 09:11:12;;;;;;;0.30;0.30;;;15.40;99.90;;;;;;6217868;23;20246;-68
2023/04/28 09:13:40;;;;;;;0.35;0.35;;;15.40;99.90;;;;;;6217825;23;20275;-68
2023/04/28 09:16:07;;;;;;;0.40;0.40;;;15.40;99.90;;;;;;6217747;23;20183;-68
2023/04/28 09:18:34;;;;;;;0.50;0.50;;;15.30;99.90;;;;;;6217785;23;20196;-68
2023/04/28 09:21:05;;;;;;;0.30;0.30;;;15.10;99.90;;;;;;6217822;23;20211;-68
2023/04/28 09:23:33;;;;;;;0.40;0.30;;;14.90;99.90;;;;;;6217260;23;20529;-68
2023/04/28 09:26:01;;;;;;;0.40;0.40;;;14.70;99.90;;;;;;6217890;23;20177;-68
2023/04/28 09:28:29;;;;;;;0.30;0.30;;;14.70;99.90;;;;;;6217706;23;20251;-68
2023/04/28 09:30:56;;;;;;;0.40;0.40;;;14.70;99.90;;;;;;6217701;23;20196;-68
2023/04/28 09:33:23;;;;;;;0.30;0.30;;;14.90;99.90;;;;;;6217653;23;20200;-68
2023/04/28 09:35:50;;;;;;;0.32;0.32;;;15.00;99.90;;;;;;6217624;23;20196;-68
2023/04/28 09:38:18;;;;;;;0.30;0.30;;;15.00;99.90;;;;;;6217557;23;20253;-68
2023/04/28 09:40:56;;;;;;;0.30;0.30;;;15.00;99.90;;;;;;6217548;23;20177;-68
2023/04/28 09:43:25;;;;;;;0.30;0.30;;;15.00;99.90;;;;;;6217260;23;20703;-68
2023/04/28 09:45:53;;;;;;;0.30;0.30;;;15.00;99.90;;;;;;6217779;23;20176;-68
2023/04/28 09:48:28;;;;;;;0.30;0.30;;;15.20;99.90;;;;;;6217558;23;20180;-69
2023/04/28 09:50:55;;;;;;;0.40;0.40;;;15.40;99.90;;;;;;6217131;23;20586;-68
2023/04/28 09:53:23;;;;;;;0.30;0.30;;;15.40;99.90;;;;;;6217642;23;20200;-68
2023/04/28 09:55:51;;;;;;;0.45;0.45;;;15.50;99.90;;;;;;6217452;23;20176;-69
2023/04/28 09:58:20;;;;;;;0.30;0.30;;;15.70;99.90;;;;;;6217469;23;20202;-69
2023/04/28 10:00:53;;;;;;;0.20;0.20;;;15.90;99.90;;;;;;6217625;23;20173;-70
2023/04/28 10:03:23;;;;;;;0.32;0.32;;;16.20;99.90;;;;;;6217563;23;20224;-70
2023/04/28 10:05:49;;;;;;;0.20;0.20;;;16.50;99.90;;;;;;6217203;23;20243;-70
2023/04/28 10:08:17;;;;;;;0.20;0.20;;;16.90;99.90;;;;;;6217386;23;20173;-69
2023/04/28 10:10:44;;;;;;;0.30;0.30;;;17.20;99.90;;;;;;6217994;23;20176;-69
2023/04/28 10:13:11;;;;;;;0.40;0.40;;;17.40;99.90;;;;;;6216669;23;20569;-69
2023/04/28 10:15:40;;;;;;;0.30;0.30;;;17.60;99.90;;;;;;6217602;22;20649;-67
2023/04/28 10:18:09;;;;;;;0.30;0.30;;;17.40;99.90;;;;;;6217150;23;20192;-67
2023/04/28 10:20:36;;;;;;;0.40;0.40;;;17.40;99.90;;;;;;6217446;23;20181;-68
2023/04/28 10:23:25;;;;;;;0.30;0.30;;;17.20;99.90;;;;;;6217560;23;20168;-66
2023/04/28 10:25:57;;;;;;;0.32;0.30;;;17.00;99.90;;;;;;6214308;23;20193;-68
2023/04/28 10:28:25;;;;;;;0.30;0.30;;;16.70;99.90;;;;;;6217326;23;20212;-66
2023/04/28 10:31:10;;;;;;;0.30;0.30;;;16.50;99.90;;;;;;6217761;23;20176;-66
2023/04/28 10:36:49;;;;;;;0.38;0.38;;;16.50;99.90;;;;;;6214658;22;20503;-65
2023/04/28 10:39:16;;;;;;;0.30;0.30;;;16.50;99.90;;;;;;6216917;23;20184;-65
2023/04/28 10:41:45;;;;;;;0.40;0.40;;;16.60;99.90;;;;;;6217097;23;20646;-66
2023/04/28 10:44:42;;;;;;;0.30;0.30;;;16.80;99.90;;;;;;6216957;23;20184;-66
2023/04/28 10:47:10;;;;;;;0.30;0.30;;;17.20;99.90;;;;;;6217179;23;20193;-67
2023/04/28 10:50:08;;;;;;;0.30;0.30;;;17.60;99.90;;;;;;6217380;23;20180;-67
2023/04/28 10:52:50;;;;;;;0.30;0.30;;;17.90;99.90;;;;;;6217508;23;20637;-68
2023/04/28 10:55:32;;;;;;;0.40;0.40;;;18.60;99.90;;;;;;6217081;23;20160;-68
2023/04/28 10:58:36;;;;;;;0.30;0.30;;;19.00;99.90;;;;;;6217114;23;20262;-67
2023/04/28 11:01:25;;;;;;;0.40;0.40;;;19.70;99.90;;;;;;6216952;23;20176;-67
2023/04/28 11:03:58;;;;;;;0.30;0.30;;;19.70;99.90;;;;;;6216834;23;20177;-68
2023/04/28 11:06:27;;;;;;;0.38;0.38;;;19.60;99.90;;;;;;6217029;23;20592;-69
2023/04/28 11:08:56;;;;;;;0.40;0.40;;;19.20;99.90;;;;;;6216933;23;20169;-68
2023/04/28 11:11:25;;;;;;;0.20;0.20;;;19.00;99.90;;;;;;6216732;23;20175;-66
2023/04/28 11:13:53;;;;;;;0.30;0.30;;;19.10;99.90;;;;;;6216722;23;20305;-66
2023/04/28 11:16:25;;;;;;;0.35;0.35;;;19.40;99.90;;;;;;6217328;23;20672;-67
2023/04/28 11:18:58;;;;;;;0.30;0.30;;;19.50;99.90;;;;;;6216807;23;20284;-67
2023/04/28 11:21:28;;;;;;;0.40;0.40;;;19.50;99.90;;;;;;6216347;23;20160;-66
2023/04/28 11:23:57;;;;;;;0.30;0.30;;;19.50;99.90;;;;;;6217135;23;20176;-68
2023/04/28 11:26:24;;;;;;;0.28;0.28;;;19.60;99.90;;;;;;6216906;23;20192;-67
2023/04/28 11:28:52;;;;;;;0.40;0.40;;;19.70;99.90;;;;;;6216662;23;20172;-67
2023/04/28 11:31:22;;;;;;;0.30;0.30;;;19.80;99.90;;;;;;6216604;23;20183;-67
2023/04/28 11:33:58;;;;;;;0.30;0.30;;;19.90;99.90;;;;;;6216590;23;20176;-67
2023/04/28 11:36:26;;;;;;;0.20;0.20;;;19.90;99.90;;;;;;6216568;23;20196;-67
2023/04/28 11:38:53;;;;;;;0.30;0.30;;;19.90;99.90;;;;;;6215912;23;20198;-67
2023/04/28 11:41:21;;;;;;;0.30;0.30;;;19.70;99.90;;;;;;6217182;23;20183;-67
2023/04/28 11:43:48;;;;;;;0.30;0.30;;;19.50;99.90;;;;;;6216624;23;20267;-67
2023/04/28 11:46:19;;;;;;;0.38;0.38;;;19.10;99.90;;;;;;6216582;23;20196;-68
2023/04/28 11:48:46;;;;;;;0.30;0.30;;;18.60;99.90;;;;;;6216378;23;20521;-67
2023/04/28 11:51:31;;;;;;;0.30;0.30;;;18.30;99.90;;;;;;6215897;23;20510;-66
2023/04/28 11:53:58;;;;;;;0.32;0.32;;;18.00;99.90;;;;;;6216356;23;20214;-66
2023/04/28 11:56:26;;;;;;;0.30;0.30;;;17.80;99.90;;;;;;6216135;23;20203;-66
2023/04/28 11:59:05;;;;;;;0.30;0.30;;;17.80;99.90;;;;;;6216286;23;20188;-66
2023/04/28 12:01:32;;;;;;;0.30;0.30;;;18.00;99.90;;;;;;6216000;23;20638;-65
2023/04/28 12:03:59;;;;;;;0.30;0.30;;;18.30;99.90;;;;;;6216420;23;20255;-65
2023/04/28 12:06:27;;;;;;;0.32;0.32;;;18.80;99.90;;;;;;6216118;23;20283;-66
2023/04/28 12:08:54;;;;;;;0.38;0.38;;;19.10;99.90;;;;;;6216188;23;20175;-66
2023/04/28 12:11:21;;;;;;;0.45;0.45;;;19.50;99.90;;;;;;6215809;23;20517;-66
2023/04/28 12:14:05;;;;;;;0.45;0.45;;;19.70;99.90;;;;;;6216045;23;20172;-66
2023/04/28 12:16:44;;;;;;;0.30;0.30;;;19.80;99.90;;;;;;6216196;23;20733;-67
2023/04/28 12:19:13;;;;;;;1.75;0.50;;;20.10;99.90;;;;;;6216059;23;20192;-67
2023/04/28 12:21:41;;;;;;;0.22;0.22;;;20.10;99.90;;;;;;6215987;23;20187;-67
2023/04/28 12:24:19;;;;;;;0.30;0.30;;;20.00;99.90;;;;;;6216464;23;20172;-67
2023/04/28 12:26:46;;;;;;;0.40;0.40;;;20.10;99.90;;;;;;6216221;23;20250;-67
2023/04/28 12:29:44;;;;;;;0.20;0.20;;;19.90;99.90;;;;;;6216251;23;20199;-67
2023/04/28 12:32:12;;;;;;;0.25;0.25;;;20.00;99.90;;;;;;6216838;23;20612;-67
2023/04/28 12:34:40;;;;;;;0.22;0.22;;;20.10;99.90;;;;;;6218139;23;20176;-66
2023/04/28 12:37:07;;;;;;;0.20;0.20;;;20.30;99.90;;;;;;6221067;23;20196;-66
2023/04/28 12:39:35;;;;;;;0.22;0.22;;;20.60;99.90;;;;;;6230550;23;20531;-67
2023/04/28 12:42:03;;;;;;;0.30;0.30;;;20.60;99.90;;;;;;6235281;23;20176;-67
2023/04/28 12:44:34;;;;;;;0.70;0.30;;;20.80;99.90;;;;;;6231169;23;20227;-67
2023/04/28 12:47:03;;;;;;;0.30;0.30;;;20.80;99.90;;;;;;6232231;23;20200;-66
2023/04/28 12:49:30;;;;;;;0.20;0.20;;;21.00;99.90;;;;;;6217321;23;20652;-67
2023/04/28 12:51:57;;;;;;;0.30;0.28;;;21.10;99.90;;;;;;6229387;23;20179;-66
2023/04/28 12:54:23;;;;;;;0.20;0.20;;;21.30;99.90;;;;;;6216560;23;20179;-66
2023/04/28 12:56:50;;;;;;;0.20;0.20;;;21.60;99.90;;;;;;6216750;23;20221;-67
2023/04/28 12:59:17;;;;;;;0.20;0.20;;;21.70;99.90;;;;;;6217364;23;20679;-67
2023/04/28 13:01:44;;;;;;;0.20;0.20;;;21.70;99.90;;;;;;6216564;23;20179;-66
2023/04/28 13:04:12;;;;;;;0.20;0.20;;;21.80;99.90;;;;;;6216685;23;20187;-66
2023/04/28 13:06:39;;;;;;;0.20;0.20;;;22.00;99.90;;;;;;6216105;23;20515;-66
2023/04/28 13:09:06;;;;;;;0.28;0.28;;;22.20;99.90;;;;;;6216113;23;20545;-66
2023/04/28 13:11:32;;;;;;;0.30;0.30;;;22.10;99.90;;;;;;6216049;23;20172;-66
2023/04/28 13:13:59;;;;;;;0.40;0.40;;;22.10;99.90;;;;;;6215891;23;20183;-66
2023/04/28 13:16:29;;;;;;;0.30;0.30;;;22.00;99.90;;;;;;6215791;23;20223;-67
2023/04/28 13:18:56;;;;;;;0.20;0.20;;;22.10;99.90;;;;;;6215809;23;20216;-66
2023/04/28 13:21:25;;;;;;;0.32;0.32;;;21.90;99.90;;;;;;6215963;23;20177;-66
2023/04/28 13:23:52;;;;;;;0.30;0.30;;;21.70;99.90;;;;;;6215952;23;20176;-67
2023/04/28 13:26:19;;;;;;;0.20;0.20;;;21.50;99.90;;;;;;6216089;23;20192;-67
2023/04/28 13:28:46;;;;;;;0.30;0.30;;;21.40;99.90;;;;;;6215980;23;20172;-66
2023/04/28 13:31:13;;;;;;;0.30;0.30;;;21.20;99.90;;;;;;6216082;23;20199;-66
2023/04/28 13:33:40;;;;;;;0.30;0.30;;;20.90;99.90;;;;;;6215820;23;20660;-66
2023/04/28 13:36:08;;;;;;;0.32;0.32;;;20.50;99.90;;;;;;6215961;23;20192;-67
2023/04/28 13:38:36;;;;;;;0.47;0.47;;;20.20;99.90;;;;;;6215536;23;20200;-66
2023/04/28 13:41:03;;;;;;;0.40;0.40;;;20.20;99.90;;;;;;6215771;23;20184;-66
2023/04/28 13:43:30;;;;;;;1.00;0.47;;;20.20;99.90;;;;;;6215931;23;20533;-67
2023/04/28 13:45:57;;;;;;;0.43;0.43;;;20.30;99.90;;;;;;6215842;23;20203;-67
2023/04/28 13:48:25;;;;;;;1.08;0.43;;;20.30;99.90;;;;;;6217106;23;20176;-67
2023/04/28 13:50:52;;;;;;;0.60;0.60;;;20.20;99.90;;;;;;6217339;23;20534;-68
2023/04/28 13:53:19;;;;;;;0.63;0.60;;;20.20;99.90;;;;;;6217602;23;20172;-67
2023/04/28 13:55:49;;;;;;;0.50;0.50;;;20.00;99.90;;;;;;6217080;23;20199;-67
2023/04/28 13:58:15;;;;;;;0.35;0.35;;;19.80;99.90;;;;;;6217537;23;20215;-68
2023/04/28 14:00:42;;;;;;;0.52;0.52;;;19.60;99.90;;;;;;6217385;23;20176;-68
2023/04/28 14:03:10;;;;;;;0.40;0.40;;;19.30;99.90;;;;;;6217159;23;20656;-66
2023/04/28 14:05:37;;;;;;;0.40;0.40;;;19.10;99.90;;;;;;6217398;23;20246;-68
2023/04/28 14:08:05;;;;;;;0.73;0.50;;;19.00;99.90;;;;;;6217179;23;20227;-67
2023/04/28 14:10:31;;;;;;;0.50;0.50;;;18.90;99.90;;;;;;6217351;23;20180;-67
2023/04/28 14:12:59;;;;;;;0.60;0.60;;;18.80;99.90;;;;;;6217437;23;20172;-68
2023/04/28 14:15:26;;;;;;;0.63;0.63;;;18.90;99.90;;;;;;6217034;23;20501;-68
2023/04/28 14:17:53;;;;;;;0.50;0.50;;;19.10;99.90;;;;;;6217287;23;20172;-68
2023/04/28 14:20:20;;;;;;;0.80;0.80;;;19.30;99.90;;;;;;6217575;23;20176;-68
2023/04/28 14:22:47;;;;;;;0.60;0.60;;;19.50;99.90;;;;;;6217645;23;20172;-67
2023/04/28 14:25:13;;;;;;;0.73;0.70;;;19.50;99.90;;;;;;6217439;23;20183;-67
2023/04/28 14:27:40;;;;;;;0.40;0.40;;;19.60;99.90;;;;;;6217752;23;20179;-68
2023/04/28 14:30:09;;;;;;;0.55;0.55;;;19.60;99.90;;;;;;6217582;23;20172;-66
2023/04/28 14:32:37;;;;;;;0.63;0.63;;;19.50;99.90;;;;;;6216983;23;20637;-67
2023/04/28 14:35:04;;;;;;;0.50;0.50;;;19.50;99.90;;;;;;6217674;23;20254;-67
2023/04/28 14:37:32;;;;;;;2.05;1.00;;;19.40;99.90;;;;;;6216656;23;20247;-67
2023/04/28 14:39:59;;;;;;;0.90;0.90;;;19.00;99.90;;;;;;6216512;23;20196;-68
2023/04/28 14:42:29;;;;;;;0.93;0.93;;;18.70;99.90;;;;;;6217119;23;20176;-67
2023/04/28 14:44:56;;;;;;;0.80;0.80;;;18.80;99.90;;;;;;6216699;23;20176;-67
2023/04/28 14:47:25;;;;;;;0.75;0.75;;;18.90;99.90;;;;;;6217107;23;20204;-67
2023/04/28 14:49:53;;;;;;;0.60;0.60;;;19.10;99.90;;;;;;6217111;23;20172;-67
2023/04/28 14:52:21;;;;;;;0.70;0.70;;;19.10;99.90;;;;;;6217306;23;20176;-67
2023/04/28 14:54:48;;;;;;;1.65;0.57;;;19.20;99.90;;;;;;6216856;23;20637;-67
2023/04/28 14:57:14;;;;;;;0.88;0.70;;;19.20;99.90;;;;;;6216838;23;20196;-66
2023/04/28 14:59:41;;;;;;;0.85;0.70;;;19.00;99.90;;;;;;6216682;23;20192;-67
2023/04/28 15:02:08;;;;;;;0.60;0.60;;;18.90;99.90;;;;;;6216753;23;20630;-66
2023/04/28 15:04:37;;;;;;;0.65;0.65;;;18.70;99.90;;;;;;6216607;23;20180;-66
2023/04/28 15:07:05;;;;;;;0.75;0.75;;;18.60;99.90;;;;;;6216651;23;20200;-67
2023/04/28 15:09:31;;;;;;;0.70;0.70;;;18.40;99.90;;;;;;6216795;23;20212;-67
2023/04/28 15:11:58;;;;;;;0.80;0.80;;;18.30;99.90;;;;;;6216912;23;20211;-66
2023/04/28 15:14:25;;;;;;;0.60;0.60;;;18.30;99.90;;;;;;6216444;23;20179;-66
2023/04/28 15:16:52;;;;;;;0.60;0.60;;;18.30;99.90;;;;;;6216800;23;20200;-66
2023/04/28 15:19:18;;;;;;;0.82;0.82;;;18.20;99.90;;;;;;6216583;23;20195;-66
2023/04/28 15:21:47;;;;;;;0.70;0.70;;;18.10;99.90;;;;;;6216722;23;20179;-66
2023/04/28 15:24:14;;;;;;;0.60;0.60;;;18.10;99.90;;;;;;6216516;23;20208;-66
2023/04/28 15:26:41;;;;;;;0.70;0.70;;;18.20;99.90;;;;;;6216596;23;20193;-66
2023/04/28 15:29:10;;;;;;;0.60;0.60;;;18.30;99.90;;;;;;6216753;23;20193;-66
2023/04/28 15:31:37;;;;;;;0.80;0.80;;;18.60;99.90;;;;;;6216444;23;20247;-66
2023/04/28 15:34:03;;;;;;;0.75;0.75;;;18.80;99.90;;;;;;6216481;23;20173;-68
2023/04/28 15:36:31;;;;;;;0.60;0.60;;;18.90;99.90;;;;;;6216232;23;20573;-68
2023/04/28 15:38:59;;;;;;;0.60;0.60;;;19.10;99.90;;;;;;6215998;23;20196;-68
2023/04/28 15:41:26;;;;;;;0.80;0.80;;;19.10;99.90;;;;;;6216380;23;20176;-69
2023/04/28 15:43:54;;;;;;;0.80;0.80;;;19.10;99.90;;;;;;6216456;23;20181;-69
2023/04/28 15:46:21;;;;;;;0.57;0.57;;;19.10;99.90;;;;;;6215977;23;20457;-69
2023/04/28 15:48:48;;;;;;;2.05;0.70;;;19.00;99.90;;;;;;6216290;23;20196;-68
2023/04/28 15:51:15;;;;;;;0.50;0.50;;;19.00;99.90;;;;;;6216353;23;20200;-68
2023/04/28 15:53:42;;;;;;;0.80;0.80;;;19.20;99.90;;;;;;6216394;23;20180;-67
2023/04/28 15:56:10;;;;;;;0.68;0.60;;;19.30;99.90;;;;;;6216539;23;20192;-66
2023/04/28 15:58:37;;;;;;;0.52;0.52;;;19.40;99.90;;;;;;6216397;23;20183;-67
2023/04/28 16:01:04;;;;;;;0.50;0.50;;;19.50;99.90;;;;;;6216001;23;20511;-67
2023/04/28 16:03:31;;;;;;;0.47;0.47;;;19.60;99.90;;;;;;6216137;23;20214;-66
2023/04/28 16:05:58;;;;;;;4.95;0.50;;;19.40;99.90;;;;;;6216150;23;20203;-66
2023/04/28 16:08:25;;;;;;;0.45;0.45;;;19.30;99.90;;;;;;6216487;23;20194;-67
2023/04/28 16:10:52;;;;;;;0.43;0.43;;;19.10;99.90;;;;;;6216171;23;20195;-67
2023/04/28 16:13:21;;;;;;;0.40;0.40;;;18.80;99.90;;;;;;6216486;23;20176;-66
2023/04/28 16:15:50;;;;;;;0.40;0.40;;;18.50;99.90;;;;;;6216232;23;20207;-67
2023/04/28 16:18:17;;;;;;;0.30;0.30;;;18.30;99.90;;;;;;6216461;23;20227;-67
2023/04/28 16:20:44;;;;;;;0.47;0.38;;;18.30;99.90;;;;;;6216179;23;20193;-67
2023/04/28 16:23:11;;;;;;;0.50;0.50;;;18.20;99.90;;;;;;6216291;23;20172;-67
2023/04/28 16:25:38;;;;;;;0.40;0.40;;;18.10;99.90;;;;;;6216157;23;20225;-67
2023/04/28 16:28:05;;;;;;;0.30;0.30;;;18.10;99.90;;;;;;6215939;23;20187;-67
2023/04/28 16:30:34;;;;;;;0.40;0.40;;;18.10;99.90;;;;;;6216221;23;20533;-67
2023/04/28 16:33:01;;;;;;;0.40;0.40;;;18.10;99.90;;;;;;6216204;23;20176;-66
2023/04/28 16:35:27;;;;;;;0.30;0.30;;;18.10;99.90;;;;;;6216308;23;20176;-66
2023/04/28 16:37:54;;;;;;;1.55;0.40;;;18.10;99.90;;;;;;6215780;23;20625;-66
2023/04/28 16:40:21;;;;;;;0.40;0.40;;;18.20;99.90;;;;;;6216202;23;20188;-67
2023/04/28 16:42:48;;;;;;;0.30;0.30;;;18.30;99.90;;;;;;6216300;23;20182;-67
2023/04/28 16:45:15;;;;;;;0.30;0.30;;;18.20;99.90;;;;;;6216109;23;20172;-66
2023/04/28 16:47:43;;;;;;;0.30;0.30;;;18.30;99.90;;;;;;6216257;23;20172;-67
2023/04/28 16:50:10;;;;;;;0.25;0.25;;;18.30;99.90;;;;;;6216306;23;20169;-67
2023/04/28 16:52:37;;;;;;;0.30;0.30;;;18.30;99.90;;;;;;6216659;23;20176;-67
2023/04/28 16:55:04;;;;;;;0.20;0.20;;;18.30;99.90;;;;;;6216171;23;20180;-67
2023/04/28 16:57:31;;;;;;;0.20;0.20;;;18.30;99.90;;;;;;6216008;23;20196;-67
2023/04/28 16:59:59;;;;;;;0.40;0.40;;;18.30;99.90;;;;;;6216047;23;20220;-67